Tk Rotterdam — A8RG8 — position and weather

sailwx.info

Track history (hours):
 
Tides and Currents Weather Stations Pressure Air Temp Water Temp Dewpoint Dewpoint Depression Visibility Wind Speed Wind Dir Waves Ship Positions

Tk Rotterdam

Last reported at 2015-Apr-25 02:31 UTC. Time now 2015-Apr-28 11:50 UTC.
Position N 39°14' W 009°51'.

Length 130 m; draft 7.5 m.

Type: Cargo ship. MMSI: 636014098.

Date/timePositionNaut miles runAvg speedWind from/ knotsBaromVisibWave heightAir tempDewpointWater temp
2015-Apr-25 02:31N 39°14' W 009°51'1212.3
2015-Apr-25 01:33N 39°02' W 009°51'1212.2
2015-Apr-25 00:33N 38°50' W 009°51'1211.9
2015-Apr-24 23:32N 38°38' W 009°49'1211.9
2015-Apr-24 22:33N 38°26' W 009°45'1211.8
2015-Apr-24 21:33N 38°15' W 009°42'1211.9
2015-Apr-24 20:34N 38°03' W 009°39'1312.0
2015-Apr-24 19:29N 37°51' W 009°35'1312.3
2015-Apr-24 18:27N 37°38' W 009°32'1212.2
2015-Apr-24 17:29N 37°27' W 009°29'6510.6
2015-Apr-24 11:21N 36°36' W 008°37'1211.7
2015-Apr-24 10:20N 36°33' W 008°23'4612.0
2015-Apr-24 06:30N 36°18' W 007°29'3612.1
2015-Apr-24 03:33N 36°06' W 006°47'5811.3
2015-Apr-23 22:25N 35°58' W 005°36'7 8.6
2015-Apr-23 21:33N 35°59' W 005°27'10 9.9
2015-Apr-23 20:34N 36°01' W 005°15'21612.4
2015-Apr-23 03:12N 36°36' W 000°51'812.8
2015-Apr-23 02:33N 36°38' W 000°41'3912.8
2015-Apr-22 23:29N 36°43' E 000°08'7612.1
2015-Apr-22 17:13N 36°55' E 001°41'4912.3
2015-Apr-22 13:16N 37°01' E 002°41'5811.6
2015-Apr-22 08:19N 37°11' E 003°52'912.2
2015-Apr-22 07:33N 37°13' E 004°04'1312.2
2015-Apr-22 06:28N 37°14' E 004°20'11512.6
2015-Apr-21 21:19N 37°27' E 006°44'31811.8
2015-Apr-20 18:24N 36°55' E 013°21'1211.8
2015-Apr-20 17:23N 36°52' E 013°36'1011.7
2015-Apr-20 16:33N 36°49' E 013°47'1211.6
2015-Apr-20 15:33N 36°45' E 014°01'1211.6
2015-Apr-20 14:33N 36°42' E 014°15'1211.9
2015-Apr-20 13:34N 36°38' E 014°29'44811.5
2015-Apr-18 22:33N 37°11' E 023°48'4011.6
2015-Apr-18 19:08N 37°43' E 024°17'911.8
2015-Apr-18 18:24N 37°49' E 024°25'1112.4
2015-Apr-18 17:31N 37°57' E 024°35'272 7.7
2015-Apr-17 06:26N 40°59' E 028°56'0 0.0
2015-Apr-17 05:19N 40°59' E 028°56'0 0.0
2015-Apr-17 04:30N 40°59' E 028°56'0 0.0
2015-Apr-17 03:24N 40°59' E 028°56'0 0.0
2015-Apr-17 00:28N 40°59' E 028°56'0 0.0
2015-Apr-16 22:27N 40°59' E 028°56'0 0.0
2015-Apr-16 21:14N 40°59' E 028°56'0 0.0
2015-Apr-16 20:31N 40°59' E 028°56'0 0.0
2015-Apr-16 19:25N 40°59' E 028°56'0 0.1
2015-Apr-16 18:07N 40°59' E 028°56'2 4.4
2015-Apr-16 17:33N 40°59' E 028°59'17 0.7
2015-Apr-15 15:27N 41°16' E 029°03'  
Track history (hours):
 
Tides and Currents Weather Stations Pressure Air Temp Water Temp Dewpoint Dewpoint Depression Visibility Wind Speed Wind Dir Waves Ship Positions

Tk Rotterdam

Last reported at 2015-Apr-25 02:31 UTC. Time now 2015-Apr-28 11:50 UTC.
Position N 39°14' W 009°51'.

Length 130 m; draft 7.5 m.

Type: Cargo ship. MMSI: 636014098.

Date/timePositionNaut miles runAvg speedWind from/ knotsBaromVisibWave heightAir tempDewpointWater temp
2015-Apr-25 02:31N 39°14' W 009°51'1212.3
2015-Apr-25 01:33N 39°02' W 009°51'1212.2
2015-Apr-25 00:33N 38°50' W 009°51'1211.9
2015-Apr-24 23:32N 38°38' W 009°49'1211.9
2015-Apr-24 22:33N 38°26' W 009°45'1211.8
2015-Apr-24 21:33N 38°15' W 009°42'1211.9
2015-Apr-24 20:34N 38°03' W 009°39'1312.0
2015-Apr-24 19:29N 37°51' W 009°35'1312.3
2015-Apr-24 18:27N 37°38' W 009°32'1212.2
2015-Apr-24 17:29N 37°27' W 009°29'6510.6
2015-Apr-24 11:21N 36°36' W 008°37'1211.7
2015-Apr-24 10:20N 36°33' W 008°23'4612.0
2015-Apr-24 06:30N 36°18' W 007°29'3612.1
2015-Apr-24 03:33N 36°06' W 006°47'5811.3
2015-Apr-23 22:25N 35°58' W 005°36'7 8.6
2015-Apr-23 21:33N 35°59' W 005°27'10 9.9
2015-Apr-23 20:34N 36°01' W 005°15'21612.4
2015-Apr-23 03:12N 36°36' W 000°51'812.8
2015-Apr-23 02:33N 36°38' W 000°41'3912.8
2015-Apr-22 23:29N 36°43' E 000°08'7612.1
2015-Apr-22 17:13N 36°55' E 001°41'4912.3
2015-Apr-22 13:16N 37°01' E 002°41'5811.6
2015-Apr-22 08:19N 37°11' E 003°52'912.2
2015-Apr-22 07:33N 37°13' E 004°04'1312.2
2015-Apr-22 06:28N 37°14' E 004°20'11512.6
2015-Apr-21 21:19N 37°27' E 006°44'31811.8
2015-Apr-20 18:24N 36°55' E 013°21'1211.8
2015-Apr-20 17:23N 36°52' E 013°36'1011.7
2015-Apr-20 16:33N 36°49' E 013°47'1211.6
2015-Apr-20 15:33N 36°45' E 014°01'1211.6
2015-Apr-20 14:33N 36°42' E 014°15'1211.9
2015-Apr-20 13:34N 36°38' E 014°29'44811.5
2015-Apr-18 22:33N 37°11' E 023°48'4011.6
2015-Apr-18 19:08N 37°43' E 024°17'911.8
2015-Apr-18 18:24N 37°49' E 024°25'1112.4
2015-Apr-18 17:31N 37°57' E 024°35'272 7.7
2015-Apr-17 06:26N 40°59' E 028°56'0 0.0
2015-Apr-17 05:19N 40°59' E 028°56'0 0.0
2015-Apr-17 04:30N 40°59' E 028°56'0 0.0
2015-Apr-17 03:24N 40°59' E 028°56'0 0.0
2015-Apr-17 00:28N 40°59' E 028°56'0 0.0
2015-Apr-16 22:27N 40°59' E 028°56'0 0.0
2015-Apr-16 21:14N 40°59' E 028°56'0 0.0
2015-Apr-16 20:31N 40°59' E 028°56'0 0.0
2015-Apr-16 19:25N 40°59' E 028°56'0 0.1
2015-Apr-16 18:07N 40°59' E 028°56'2 4.4
2015-Apr-16 17:33N 40°59' E 028°59'17 0.7
2015-Apr-15 15:27N 41°16' E 029°03'  

Dump ship's entire track history